createdAt,value
2023-05-04T00:00:34.212Z,23.65
2023-05-04T00:01:34.253Z,23.65
2023-05-04T00:02:34.292Z,23.64
2023-05-04T00:03:34.356Z,23.64
2023-05-04T00:04:34.331Z,23.64
2023-05-04T00:05:34.283Z,23.63
2023-05-04T00:06:34.300Z,23.63
2023-05-04T00:07:34.309Z,23.63
2023-05-04T00:08:34.358Z,23.62
2023-05-04T00:09:34.328Z,23.62
2023-05-04T00:10:34.338Z,23.62
2023-05-04T00:11:34.350Z,23.62
2023-05-04T00:12:34.369Z,23.62
2023-05-04T00:13:34.356Z,23.62
2023-05-04T00:14:34.400Z,23.63
2023-05-04T00:15:34.417Z,23.63
2023-05-04T00:16:34.492Z,23.62
2023-05-04T00:17:34.500Z,23.62
2023-05-04T00:18:34.508Z,23.62
2023-05-04T00:19:34.556Z,23.62
2023-05-04T00:20:34.573Z,23.63
2023-05-04T00:21:34.616Z,23.62
2023-05-04T00:22:34.643Z,23.62
2023-05-04T00:23:34.674Z,23.62
2023-05-04T00:24:34.734Z,23.62
2023-05-04T00:25:34.735Z,23.61
2023-05-04T00:26:34.777Z,23.62
2023-05-04T00:27:34.753Z,23.61
2023-05-04T00:28:34.783Z,23.61
2023-05-04T00:29:34.794Z,23.61
2023-05-04T00:30:34.840Z,23.61
2023-05-04T00:31:34.889Z,23.61
2023-05-04T00:32:34.867Z,23.61
2023-05-04T00:33:34.871Z,23.60
2023-05-04T00:34:34.918Z,23.60
2023-05-04T00:35:34.916Z,23.59
2023-05-04T00:36:34.979Z,23.59
2023-05-04T00:37:35.020Z,23.58
2023-05-04T00:38:34.958Z,23.59
2023-05-04T00:39:35.106Z,23.59
2023-05-04T00:40:35.014Z,23.59
2023-05-04T00:41:35.016Z,23.58
2023-05-04T00:42:35.027Z,23.59
2023-05-04T00:43:35.094Z,23.59
2023-05-04T00:44:35.051Z,23.58
2023-05-04T00:45:35.098Z,23.59
2023-05-04T00:46:35.083Z,23.59
2023-05-04T00:47:35.101Z,23.58
2023-05-04T00:48:35.053Z,23.58
2023-05-04T00:49:35.178Z,23.58
2023-05-04T00:50:35.064Z,23.59
2023-05-04T00:51:35.884Z,23.58
2023-05-04T00:52:35.073Z,23.57
2023-05-04T00:53:35.095Z,23.57
2023-05-04T00:54:35.111Z,23.56
2023-05-04T00:55:35.113Z,23.56
2023-05-04T00:56:35.111Z,23.55
2023-05-04T00:57:35.114Z,23.55
2023-05-04T00:58:35.146Z,23.56
2023-05-04T00:59:35.137Z,23.56
2023-05-04T01:00:35.158Z,23.55
2023-05-04T01:01:35.268Z,23.55
2023-05-04T01:02:35.207Z,23.55
2023-05-04T01:03:35.264Z,23.54
2023-05-04T01:04:35.213Z,23.54
2023-05-04T01:05:35.212Z,23.54
2023-05-04T01:06:35.255Z,23.53
2023-05-04T01:07:35.240Z,23.53
2023-05-04T01:08:35.278Z,23.54
2023-05-04T01:09:35.254Z,23.54
2023-05-04T01:10:35.250Z,23.54
2023-05-04T01:11:35.383Z,23.54
2023-05-04T01:12:35.508Z,23.54
2023-05-04T01:13:35.430Z,23.54
2023-05-04T01:14:35.506Z,23.53
2023-05-04T01:15:35.890Z,23.53
2023-05-04T01:16:35.478Z,23.53
2023-05-04T01:17:35.505Z,23.52
2023-05-04T01:18:35.469Z,23.53
2023-05-04T01:19:35.443Z,23.52
2023-05-04T01:20:35.465Z,23.52
2023-05-04T01:21:35.453Z,23.52
2023-05-04T01:22:35.477Z,23.52
2023-05-04T01:23:35.443Z,23.51
2023-05-04T01:24:35.465Z,23.51
2023-05-04T01:25:35.474Z,23.50
2023-05-04T01:26:35.508Z,23.50
2023-05-04T01:27:35.501Z,23.50
2023-05-04T01:28:35.531Z,23.50
2023-05-04T01:29:35.566Z,23.50
2023-05-04T01:30:35.584Z,23.50
2023-05-04T01:31:35.595Z,23.50
2023-05-04T01:32:35.740Z,23.51
2023-05-04T01:33:35.619Z,23.50
2023-05-04T01:34:35.631Z,23.50
2023-05-04T01:35:35.635Z,23.50
2023-05-04T01:36:35.676Z,23.50
2023-05-04T01:37:35.661Z,23.49
2023-05-04T01:38:35.707Z,23.49
2023-05-04T01:39:35.750Z,23.49
2023-05-04T01:40:35.790Z,23.48
2023-05-04T01:41:35.835Z,23.48
2023-05-04T01:42:35.876Z,23.47
2023-05-04T01:43:35.922Z,23.47
2023-05-04T01:44:35.989Z,23.46
2023-05-04T01:45:36.024Z,23.46
2023-05-04T01:46:36.188Z,23.46
2023-05-04T01:47:36.134Z,23.47
2023-05-04T01:48:36.168Z,23.47
2023-05-04T01:49:36.214Z,23.46
2023-05-04T01:50:36.268Z,23.46
2023-05-04T01:51:36.325Z,23.46
2023-05-04T01:52:36.364Z,23.47
2023-05-04T01:53:36.416Z,23.47
2023-05-04T01:54:36.463Z,23.46
2023-05-04T01:55:36.509Z,23.46
2023-05-04T01:56:36.561Z,23.46
2023-05-04T01:57:36.605Z,23.45
2023-05-04T01:58:36.656Z,23.45
2023-05-04T01:59:36.696Z,23.44
2023-05-04T02:00:36.746Z,23.43
2023-05-04T02:01:36.855Z,23.43
2023-05-04T02:02:36.918Z,23.43
2023-05-04T02:03:36.952Z,23.43
2023-05-04T02:04:36.937Z,23.43
2023-05-04T02:05:36.992Z,23.43
2023-05-04T02:06:37.047Z,23.43
2023-05-04T02:07:37.094Z,23.43
2023-05-04T02:08:37.149Z,23.43
2023-05-04T02:09:37.202Z,23.43
2023-05-04T02:10:37.210Z,23.43
2023-05-04T02:11:37.250Z,23.43
2023-05-04T02:12:37.296Z,23.43
2023-05-04T02:13:37.280Z,23.43
2023-05-04T02:14:37.303Z,23.42
2023-05-04T02:15:37.336Z,23.42
2023-05-04T02:16:37.458Z,23.43
2023-05-04T02:17:37.385Z,23.43
2023-05-04T02:18:37.365Z,23.42
2023-05-04T02:19:37.384Z,23.41
2023-05-04T02:20:37.393Z,23.41
2023-05-04T02:21:37.413Z,23.41
2023-05-04T02:22:37.420Z,23.39
2023-05-04T02:23:37.438Z,23.39
2023-05-04T02:24:37.454Z,23.39
2023-05-04T02:25:37.460Z,23.39
2023-05-04T02:26:37.471Z,23.39
2023-05-04T02:27:37.499Z,23.38
2023-05-04T02:28:37.525Z,23.39
2023-05-04T02:29:37.581Z,23.39
2023-05-04T02:30:37.647Z,23.39
2023-05-04T02:31:37.705Z,23.39
2023-05-04T02:32:37.739Z,23.38
2023-05-04T02:33:37.755Z,23.39
2023-05-04T02:34:37.797Z,23.39
2023-05-04T02:35:37.851Z,23.38
2023-05-04T02:36:37.902Z,23.38
2023-05-04T02:37:37.971Z,23.38
2023-05-04T02:38:38.004Z,23.37
2023-05-04T02:39:38.077Z,23.38
2023-05-04T02:40:38.154Z,23.38
2023-05-04T02:41:38.202Z,23.39
2023-05-04T02:42:38.208Z,23.38
2023-05-04T02:43:38.201Z,23.36
2023-05-04T02:44:38.217Z,23.38
2023-05-04T02:45:38.260Z,23.37
2023-05-04T02:46:38.225Z,23.37
2023-05-04T02:47:38.302Z,23.38
2023-05-04T02:48:38.241Z,23.37
2023-05-04T02:49:38.256Z,23.37
2023-05-04T02:50:38.272Z,23.37
2023-05-04T02:51:38.282Z,23.36
2023-05-04T02:52:38.356Z,23.35
2023-05-04T02:53:38.321Z,23.36
2023-05-04T02:54:38.339Z,23.36
2023-05-04T02:55:38.359Z,23.35
2023-05-04T02:56:38.370Z,23.35
2023-05-04T02:57:38.512Z,23.35
2023-05-04T02:58:38.468Z,23.35
2023-05-04T02:59:38.518Z,23.35
2023-05-04T03:00:38.579Z,23.34
2023-05-04T03:01:38.765Z,23.35
2023-05-04T03:02:38.745Z,23.34
2023-05-04T03:03:38.781Z,23.34
2023-05-04T03:04:38.905Z,23.34
2023-05-04T03:05:38.857Z,23.34
2023-05-04T03:06:38.939Z,23.34
2023-05-04T03:07:38.978Z,23.34
2023-05-04T03:08:38.984Z,23.34
2023-05-04T03:09:39.002Z,23.34
2023-05-04T03:10:39.012Z,23.34
2023-05-04T03:11:39.035Z,23.34
2023-05-04T03:12:39.082Z,23.34
2023-05-04T03:13:39.144Z,23.33
2023-05-04T03:14:39.065Z,23.33
2023-05-04T03:15:39.082Z,23.32
2023-05-04T03:16:39.151Z,23.32
2023-05-04T03:17:39.201Z,23.32
2023-05-04T03:19:57.974Z,23.28
2023-05-04T03:20:57.978Z,23.30
2023-05-04T03:21:57.984Z,23.30
2023-05-04T03:22:57.963Z,23.31
2023-05-04T03:23:57.974Z,23.30
2023-05-04T03:24:58.012Z,23.30
2023-05-04T03:25:57.990Z,23.30
2023-05-04T03:26:57.997Z,23.30
2023-05-04T03:27:58.034Z,23.30
2023-05-04T03:28:57.954Z,23.30
2023-05-04T03:29:57.960Z,23.30
2023-05-04T03:30:57.977Z,23.30
2023-05-04T03:31:58.023Z,23.30
2023-05-04T03:32:58.042Z,23.29
2023-05-04T03:33:58.052Z,23.30
2023-05-04T03:34:57.996Z,23.29
2023-05-04T03:35:57.999Z,23.29
2023-05-04T03:36:58.012Z,23.29
2023-05-04T03:37:58.019Z,23.29
2023-05-04T03:38:58.005Z,23.29
2023-05-04T03:39:58.025Z,23.29
2023-05-04T03:40:58.003Z,23.29
2023-05-04T03:41:58.006Z,23.29
2023-05-04T03:42:58.062Z,23.29
2023-05-04T03:43:58.007Z,23.29
2023-05-04T03:44:58.011Z,23.29
2023-05-04T03:45:58.037Z,23.28
2023-05-04T03:46:58.028Z,23.28
2023-05-04T03:47:58.054Z,23.29
2023-05-04T03:48:58.065Z,23.28
2023-05-04T03:49:58.051Z,23.28
2023-05-04T03:50:58.061Z,23.28
2023-05-04T03:51:58.063Z,23.27
2023-05-04T03:52:58.060Z,23.26
2023-05-04T03:53:58.059Z,23.26
2023-05-04T03:54:58.061Z,23.26
2023-05-04T03:55:58.069Z,23.26
2023-05-04T03:56:58.082Z,23.25
2023-05-04T03:57:58.083Z,23.25
2023-05-04T03:58:58.067Z,23.25
2023-05-04T03:59:58.158Z,23.24
2023-05-04T04:00:58.072Z,23.24
2023-05-04T04:01:58.127Z,23.24
2023-05-04T04:02:58.185Z,23.23
2023-05-04T04:03:58.175Z,23.21
2023-05-04T04:04:58.122Z,23.20
2023-05-04T04:05:58.150Z,23.18
2023-05-04T04:06:58.183Z,23.18
2023-05-04T04:07:58.162Z,23.18
2023-05-04T04:08:58.177Z,23.20
2023-05-04T04:09:58.210Z,23.20
2023-05-04T04:10:58.244Z,23.21
2023-05-04T04:11:58.292Z,23.20
2023-05-04T04:12:58.514Z,23.19
2023-05-04T04:13:58.407Z,23.17
2023-05-04T04:14:58.469Z,23.15
2023-05-04T04:15:58.544Z,23.15
2023-05-04T04:16:58.588Z,23.15
2023-05-04T04:17:58.704Z,23.14
2023-05-04T04:18:58.757Z,23.13
2023-05-04T04:19:58.725Z,23.13
2023-05-04T04:20:58.788Z,23.12
2023-05-04T04:21:58.840Z,23.12
2023-05-04T04:22:58.907Z,23.12
2023-05-04T04:23:58.961Z,23.10
2023-05-04T04:24:59.014Z,23.08
2023-05-04T04:25:59.076Z,23.07
2023-05-04T04:26:59.139Z,23.08
2023-05-04T04:27:59.200Z,23.08
2023-05-04T04:28:59.248Z,23.07
2023-05-04T04:29:59.309Z,23.06
2023-05-04T04:30:59.459Z,23.07
2023-05-04T04:31:59.501Z,23.07
2023-05-04T04:32:59.546Z,23.07
2023-05-04T04:33:59.563Z,23.07
2023-05-04T04:34:59.652Z,23.05
2023-05-04T04:35:59.705Z,23.05
2023-05-04T04:36:59.797Z,23.05
2023-05-04T04:38:01.598Z,23.05
2023-05-04T04:38:59.818Z,23.06
2023-05-04T04:39:59.847Z,23.06
2023-05-04T04:40:59.844Z,23.04
2023-05-04T04:41:59.846Z,23.04
2023-05-04T04:42:59.865Z,23.03
2023-05-04T04:43:59.885Z,23.04
2023-05-04T04:44:59.926Z,23.04
2023-05-04T04:45:59.882Z,23.03
2023-05-04T04:46:59.928Z,23.02
2023-05-04T04:47:59.936Z,23.02
2023-05-04T04:48:59.897Z,23.02
2023-05-04T04:49:59.933Z,23.04
2023-05-04T04:50:59.953Z,23.02
2023-05-04T04:51:59.972Z,23.02
2023-05-04T04:52:59.963Z,23.02
2023-05-04T04:53:59.972Z,23.02
2023-05-04T04:54:59.993Z,23.01
2023-05-04T04:56:00.016Z,23.02
2023-05-04T04:57:00.030Z,23.01
2023-05-04T04:58:00.035Z,23.00
2023-05-04T04:59:00.042Z,23.00
2023-05-04T05:00:00.034Z,23.01
2023-05-04T05:01:00.075Z,23.03
2023-05-04T05:02:00.099Z,23.01
2023-05-04T05:03:00.210Z,23.00
2023-05-04T05:04:00.074Z,23.00
2023-05-04T05:05:00.230Z,22.99
2023-05-04T05:06:00.086Z,22.99
2023-05-04T05:07:00.130Z,23.00
2023-05-04T05:08:00.164Z,22.99
2023-05-04T05:09:00.140Z,22.98
2023-05-04T05:10:00.133Z,22.98
2023-05-04T05:11:00.159Z,22.99
2023-05-04T05:12:00.130Z,23.00
2023-05-04T05:13:00.203Z,23.00
2023-05-04T05:14:00.169Z,22.98
2023-05-04T05:15:00.164Z,22.98
2023-05-04T05:16:00.201Z,22.98
2023-05-04T05:17:00.511Z,22.98
2023-05-04T05:18:00.437Z,22.99
2023-05-04T05:19:00.452Z,22.98
2023-05-04T05:20:00.539Z,22.97
2023-05-04T05:21:00.659Z,22.97
2023-05-04T05:22:00.663Z,22.97
2023-05-04T05:23:00.792Z,22.98
2023-05-04T05:24:00.910Z,22.98
2023-05-04T05:25:00.949Z,22.97
2023-05-04T05:26:03.264Z,22.96
2023-05-04T05:27:01.122Z,22.96
2023-05-04T05:28:01.215Z,22.96
2023-05-04T05:29:01.256Z,22.97
2023-05-04T05:30:01.362Z,22.97
2023-05-04T05:31:01.422Z,22.97
2023-05-04T05:32:01.495Z,22.97
2023-05-04T05:33:01.599Z,22.97
2023-05-04T05:34:01.636Z,22.99
2023-05-04T05:35:01.729Z,23.01
2023-05-04T05:36:01.757Z,23.04
2023-05-04T05:37:01.868Z,23.06
2023-05-04T05:38:01.914Z,23.10
2023-05-04T05:39:01.952Z,23.13
2023-05-04T05:40:02.123Z,23.16
2023-05-04T05:41:02.017Z,23.18
2023-05-04T05:42:01.990Z,23.23
2023-05-04T05:43:01.973Z,23.25
2023-05-04T05:44:01.993Z,23.28
2023-05-04T05:45:01.978Z,23.31
2023-05-04T05:46:02.078Z,23.33
2023-05-04T05:47:01.994Z,23.34
2023-05-04T05:48:02.052Z,23.38
2023-05-04T05:49:01.982Z,23.40
2023-05-04T05:50:02.010Z,23.43
2023-05-04T05:51:02.005Z,23.46
2023-05-04T05:52:02.008Z,23.51
2023-05-04T05:53:02.157Z,23.54
2023-05-04T05:54:02.008Z,23.57
2023-05-04T05:55:02.779Z,23.60
2023-05-04T05:56:02.050Z,23.64
2023-05-04T05:57:01.969Z,23.67
2023-05-04T05:58:02.101Z,23.71
2023-05-04T05:59:02.043Z,23.73
2023-05-04T06:00:02.113Z,23.75
2023-05-04T06:01:02.057Z,23.77
2023-05-04T06:02:02.047Z,23.79
2023-05-04T06:03:02.162Z,23.81
2023-05-04T06:04:02.189Z,23.82
2023-05-04T06:05:02.201Z,23.81
2023-05-04T06:06:02.059Z,23.83
2023-05-04T06:07:02.044Z,23.85
2023-05-04T06:08:02.066Z,23.87
2023-05-04T06:09:02.099Z,23.90
2023-05-04T06:10:02.086Z,23.92
2023-05-04T06:11:02.010Z,23.93
2023-05-04T06:12:02.005Z,23.94
2023-05-04T06:13:02.075Z,23.95
2023-05-04T06:14:01.978Z,23.97
2023-05-04T06:15:01.985Z,23.98
2023-05-04T06:16:02.037Z,23.98
2023-05-04T06:17:01.954Z,24.00
2023-05-04T06:18:02.055Z,24.03
2023-05-04T06:19:01.944Z,24.05
2023-05-04T06:20:01.961Z,24.06
2023-05-04T06:21:02.096Z,24.07
2023-05-04T06:22:01.927Z,24.08
2023-05-04T06:23:01.923Z,24.10
2023-05-04T06:24:01.895Z,24.11
2023-05-04T06:25:05.292Z,24.12
2023-05-04T06:26:02.891Z,24.13
2023-05-04T06:27:01.893Z,24.13
2023-05-04T06:28:01.897Z,24.15
2023-05-04T06:29:01.906Z,24.18
2023-05-04T06:30:01.910Z,24.19
2023-05-04T06:31:01.868Z,24.21
2023-05-04T06:32:01.926Z,24.23
2023-05-04T06:33:01.979Z,24.25
2023-05-04T06:34:01.867Z,24.26
2023-05-04T06:35:01.909Z,24.29
2023-05-04T06:36:01.869Z,24.31
2023-05-04T06:37:01.835Z,24.35
2023-05-04T06:38:01.844Z,24.34
2023-05-04T06:39:01.829Z,24.24
2023-05-04T06:40:01.865Z,24.09
2023-05-04T06:41:01.871Z,23.99
2023-05-04T06:42:01.882Z,23.99
2023-05-04T06:43:01.878Z,24.00
2023-05-04T06:44:01.975Z,23.98
2023-05-04T06:45:01.834Z,24.00
2023-05-04T06:46:02.865Z,23.99
2023-05-04T06:47:01.842Z,24.00
2023-05-04T06:48:01.914Z,23.99
2023-05-04T06:49:01.896Z,23.99
2023-05-04T06:50:01.864Z,23.97
2023-05-04T06:51:03.075Z,23.92
2023-05-04T06:52:01.848Z,23.89
2023-05-04T06:53:01.924Z,23.89
2023-05-04T06:54:01.860Z,23.89
2023-05-04T06:55:01.865Z,23.91
2023-05-04T06:56:01.877Z,23.93
2023-05-04T06:57:01.877Z,23.96
2023-05-04T06:58:01.869Z,23.99
2023-05-04T06:59:01.896Z,24.01
2023-05-04T07:00:01.916Z,24.05
2023-05-04T07:01:01.889Z,24.07
2023-05-04T07:02:01.888Z,24.09
2023-05-04T07:03:01.877Z,24.11
2023-05-04T07:04:01.958Z,24.13
2023-05-04T07:05:01.865Z,24.15
2023-05-04T07:06:01.847Z,24.17
2023-05-04T07:07:01.893Z,24.19
2023-05-04T07:08:01.854Z,24.21
2023-05-04T07:09:01.830Z,24.23
2023-05-04T07:10:01.911Z,24.25
2023-05-04T07:11:01.896Z,24.27
2023-05-04T07:12:01.836Z,24.29
2023-05-04T07:13:02.041Z,24.31
2023-05-04T07:14:01.918Z,24.33
2023-05-04T07:15:01.984Z,24.35
2023-05-04T07:16:02.103Z,24.35
2023-05-04T07:17:02.104Z,24.36
2023-05-04T07:18:02.275Z,24.37
2023-05-04T07:19:02.248Z,24.38
2023-05-04T07:20:02.569Z,24.40
2023-05-04T07:21:21.871Z,24.42
2023-05-04T07:22:03.326Z,24.42
2023-05-04T07:23:02.318Z,24.44
2023-05-04T07:24:02.334Z,24.47
2023-05-04T07:25:02.327Z,24.47
2023-05-04T07:26:02.323Z,24.49
2023-05-04T07:27:02.344Z,24.50
2023-05-04T07:28:02.336Z,24.52
2023-05-04T07:29:02.312Z,24.54
2023-05-04T07:30:02.546Z,24.55
2023-05-04T07:31:02.331Z,24.55
2023-05-04T07:32:02.337Z,24.56
2023-05-04T07:33:02.355Z,24.57
2023-05-04T07:34:02.280Z,24.59
2023-05-04T07:35:02.265Z,24.60
2023-05-04T07:36:02.243Z,24.62
2023-05-04T07:37:02.251Z,24.63
2023-05-04T07:38:02.415Z,24.65
2023-05-04T07:39:02.242Z,24.67
2023-05-04T07:40:02.550Z,24.68
2023-05-04T07:41:02.233Z,24.67
2023-05-04T07:42:02.216Z,24.69
2023-05-04T07:43:02.444Z,24.69
2023-05-04T07:44:02.331Z,24.67
2023-05-04T07:45:02.330Z,24.64
2023-05-04T07:46:02.203Z,24.61
2023-05-04T07:47:02.153Z,24.59
2023-05-04T07:48:02.245Z,24.55
2023-05-04T07:49:02.164Z,24.53
2023-05-04T07:50:02.349Z,24.51
2023-05-04T07:51:02.127Z,24.47
2023-05-04T07:52:02.158Z,24.45
2023-05-04T07:53:02.130Z,24.43
2023-05-04T07:54:02.136Z,24.41
2023-05-04T07:55:02.130Z,24.39
2023-05-04T07:56:02.129Z,24.37
2023-05-04T07:57:02.320Z,24.36
2023-05-04T07:58:02.276Z,24.34
2023-05-04T07:59:02.249Z,24.32
2023-05-04T08:00:02.374Z,24.31
2023-05-04T08:01:02.282Z,24.29
2023-05-04T08:02:02.255Z,24.28
2023-05-04T08:03:02.313Z,24.27
2023-05-04T08:04:02.220Z,24.27
2023-05-04T08:05:02.219Z,24.25
2023-05-04T08:06:02.236Z,24.25
2023-05-04T08:07:02.224Z,24.23
2023-05-04T08:08:02.244Z,24.22
2023-05-04T08:09:02.236Z,24.21
2023-05-04T08:10:02.380Z,24.20
2023-05-04T08:11:12.308Z,24.19
2023-05-04T08:12:03.185Z,24.18
2023-05-04T08:13:02.257Z,24.17
2023-05-04T08:14:02.173Z,24.16
2023-05-04T08:15:02.316Z,24.16
2023-05-04T08:16:02.155Z,24.14
2023-05-04T08:17:02.176Z,24.13
2023-05-04T08:18:02.266Z,24.12
2023-05-04T08:19:02.141Z,24.11
2023-05-04T08:20:02.143Z,24.12
2023-05-04T08:21:02.150Z,24.11
2023-05-04T08:22:02.160Z,24.10
2023-05-04T08:23:02.227Z,24.09
2023-05-04T08:24:02.229Z,24.09
2023-05-04T08:25:02.376Z,24.08
2023-05-04T08:26:02.288Z,24.07
2023-05-04T08:27:07.900Z,24.07
2023-05-04T08:28:03.251Z,24.06
2023-05-04T08:29:02.246Z,24.05
2023-05-04T08:30:02.259Z,24.05
2023-05-04T08:31:02.290Z,24.05
2023-05-04T08:32:02.277Z,24.03
2023-05-04T08:33:02.704Z,24.03
2023-05-04T08:34:02.294Z,24.02
2023-05-04T08:35:02.330Z,24.04
2023-05-04T08:36:02.280Z,24.04
2023-05-04T08:37:02.250Z,24.04
2023-05-04T08:38:02.218Z,24.03
2023-05-04T08:39:02.249Z,24.02
2023-05-04T08:40:02.236Z,24.02
2023-05-04T08:41:02.216Z,24.00
2023-05-04T08:42:02.230Z,23.98
2023-05-04T08:43:02.209Z,23.99
2023-05-04T08:44:02.221Z,23.98
2023-05-04T08:45:02.356Z,23.97
2023-05-04T08:46:02.261Z,23.96
2023-05-04T08:47:02.187Z,23.96
2023-05-04T08:48:02.217Z,23.94
2023-05-04T08:49:02.291Z,23.93
2023-05-04T08:50:02.214Z,23.96
2023-05-04T08:51:02.206Z,23.99
2023-05-04T08:52:02.214Z,24.02
2023-05-04T08:53:02.287Z,24.06
2023-05-04T08:54:02.191Z,24.09
2023-05-04T08:55:02.258Z,24.11
2023-05-04T08:56:02.182Z,24.12
2023-05-04T08:57:02.165Z,24.15
2023-05-04T08:58:02.177Z,24.17
2023-05-04T08:59:02.189Z,24.17
2023-05-04T09:00:02.165Z,24.19
2023-05-04T09:01:02.316Z,24.20
2023-05-04T09:02:02.189Z,24.21
2023-05-04T09:03:02.165Z,24.23
2023-05-04T09:04:02.213Z,24.25
2023-05-04T09:05:02.351Z,24.25
2023-05-04T09:06:02.165Z,24.27
2023-05-04T09:07:02.258Z,24.28
2023-05-04T09:08:02.412Z,24.29
2023-05-04T09:09:02.390Z,24.29
2023-05-04T09:10:02.470Z,24.30
2023-05-04T09:11:02.486Z,24.32
2023-05-04T09:12:02.552Z,24.33
2023-05-04T09:13:02.646Z,24.32
2023-05-04T09:14:02.684Z,24.34
2023-05-04T09:15:02.906Z,24.34
2023-05-04T09:16:02.965Z,24.38
2023-05-04T09:17:02.963Z,24.40
2023-05-04T09:18:02.937Z,24.41
2023-05-04T09:19:02.967Z,24.42
2023-05-04T09:20:03.023Z,24.43
2023-05-04T09:21:03.018Z,24.45
2023-05-04T09:22:03.083Z,24.46
2023-05-04T09:23:03.065Z,24.46
2023-05-04T09:24:03.023Z,24.47
2023-05-04T09:25:03.182Z,24.47
2023-05-04T09:26:02.988Z,24.49
2023-05-04T09:27:03.036Z,24.50
2023-05-04T09:28:02.993Z,24.52
2023-05-04T09:29:03.012Z,24.53
2023-05-04T09:30:02.980Z,24.54
2023-05-04T09:31:02.999Z,24.56
2023-05-04T09:32:02.977Z,24.55
2023-05-04T09:33:03.063Z,24.57
2023-05-04T09:34:03.069Z,24.57
2023-05-04T09:35:03.175Z,24.60
2023-05-04T09:36:03.128Z,24.61
2023-05-04T09:37:03.211Z,24.62
2023-05-04T09:38:03.150Z,24.64
2023-05-04T09:39:03.205Z,24.64
2023-05-04T09:40:03.251Z,24.66
2023-05-04T09:41:03.329Z,24.68
2023-05-04T09:42:03.274Z,24.66
2023-05-04T09:43:03.487Z,24.60
2023-05-04T09:44:03.345Z,24.57
2023-05-04T09:45:03.861Z,24.54
2023-05-04T09:46:03.484Z,24.52
2023-05-04T09:47:03.494Z,24.53
2023-05-04T09:48:03.538Z,24.55
2023-05-04T09:49:03.605Z,24.57
2023-05-04T09:50:03.706Z,24.60
2023-05-04T09:51:03.652Z,24.64
2023-05-04T09:52:03.650Z,24.68
2023-05-04T09:53:03.902Z,24.72
2023-05-04T09:54:03.726Z,24.74
2023-05-04T09:55:03.878Z,24.76
2023-05-04T09:56:06.461Z,24.77
2023-05-04T09:57:03.678Z,24.78
2023-05-04T09:58:03.836Z,24.79
2023-05-04T09:59:03.666Z,24.80
2023-05-04T10:00:03.634Z,24.82
2023-05-04T10:01:03.656Z,24.83
2023-05-04T10:02:18.170Z,24.86
2023-05-04T10:03:04.675Z,24.88
2023-05-04T10:04:03.634Z,24.91
2023-05-04T10:05:03.906Z,24.95
2023-05-04T10:06:03.594Z,24.98
2023-05-04T10:07:03.565Z,24.98
2023-05-04T10:08:03.538Z,24.99
2023-05-04T10:09:03.576Z,25.01
2023-05-04T10:10:03.535Z,25.02
2023-05-04T10:11:03.616Z,25.02
2023-05-04T10:12:03.537Z,25.01
2023-05-04T10:13:03.610Z,25.02
2023-05-04T10:14:03.513Z,25.02
2023-05-04T10:15:03.749Z,25.03
2023-05-04T10:16:03.512Z,25.02
2023-05-04T10:17:03.459Z,25.03
2023-05-04T10:18:03.499Z,25.03
2023-05-04T10:19:03.469Z,25.03
2023-05-04T10:20:03.424Z,25.03
2023-05-04T10:21:03.444Z,25.04
2023-05-04T10:22:03.441Z,25.05
2023-05-04T10:23:03.413Z,25.05
2023-05-04T10:24:03.523Z,25.05
2023-05-04T10:25:03.676Z,25.05
2023-05-04T10:26:03.410Z,25.07
2023-05-04T10:27:03.408Z,25.07
2023-05-04T10:28:03.333Z,25.08
2023-05-04T10:29:03.337Z,25.10
2023-05-04T10:30:03.320Z,25.10
2023-05-04T10:31:03.300Z,25.10
2023-05-04T10:32:03.388Z,25.11
2023-05-04T10:33:03.304Z,25.12
2023-05-04T10:34:03.255Z,25.13
2023-05-04T10:35:03.493Z,25.15
2023-05-04T10:36:03.249Z,25.14
2023-05-04T10:37:03.203Z,25.13
2023-05-04T10:38:03.357Z,25.13
2023-05-04T10:39:03.190Z,25.12
2023-05-04T10:40:03.178Z,25.12
2023-05-04T10:41:03.218Z,25.11
2023-05-04T10:42:03.139Z,25.12
2023-05-04T10:43:03.115Z,25.13
2023-05-04T10:44:03.129Z,25.13
2023-05-04T10:45:03.226Z,25.10
2023-05-04T10:46:03.095Z,25.10
2023-05-04T10:47:03.237Z,25.09
2023-05-04T10:48:03.051Z,25.08
2023-05-04T10:49:03.021Z,25.07
2023-05-04T10:50:02.998Z,25.05
2023-05-04T10:51:03.001Z,25.04
2023-05-04T10:52:02.967Z,25.01
2023-05-04T10:53:02.976Z,24.98
2023-05-04T10:54:02.947Z,24.96
2023-05-04T10:55:03.087Z,24.95
2023-05-04T10:56:02.972Z,24.93
2023-05-04T10:57:02.910Z,24.92
2023-05-04T10:58:02.938Z,24.91
2023-05-04T10:59:02.900Z,24.90
2023-05-04T11:00:02.872Z,24.89
2023-05-04T11:01:03.027Z,24.88
2023-05-04T11:02:03.224Z,24.87
2023-05-04T11:03:02.933Z,24.86
2023-05-04T11:04:02.940Z,24.85
2023-05-04T11:05:02.962Z,24.84
2023-05-04T11:06:02.796Z,24.84
2023-05-04T11:07:02.860Z,24.83
2023-05-04T11:08:02.793Z,24.83
2023-05-04T11:09:02.775Z,24.82
2023-05-04T11:10:02.751Z,24.81
2023-05-04T11:11:02.762Z,24.81
2023-05-04T11:12:02.781Z,24.80
2023-05-04T11:13:04.911Z,24.79
2023-05-04T11:14:02.877Z,24.79
2023-05-04T11:15:02.909Z,24.78
2023-05-04T11:16:02.796Z,24.79
2023-05-04T11:17:03.926Z,24.79
2023-05-04T11:18:02.826Z,24.78
2023-05-04T11:19:02.709Z,24.78
2023-05-04T11:20:02.674Z,24.78
2023-05-04T11:21:02.760Z,24.79
2023-05-04T11:22:02.685Z,24.79
2023-05-04T11:23:02.678Z,24.80
2023-05-04T11:24:02.693Z,24.78
2023-05-04T11:25:02.789Z,24.78
2023-05-04T11:26:02.636Z,24.78
2023-05-04T11:27:02.620Z,24.78
2023-05-04T11:28:02.632Z,24.75
2023-05-04T11:29:02.793Z,24.74
2023-05-04T11:30:02.659Z,24.77
2023-05-04T11:31:02.591Z,24.79
2023-05-04T11:32:02.641Z,24.82
2023-05-04T11:33:02.743Z,24.83
2023-05-04T11:34:02.836Z,24.83
2023-05-04T11:35:02.906Z,24.83
2023-05-04T11:36:02.766Z,24.83
2023-05-04T11:37:02.780Z,24.83
2023-05-04T11:38:02.772Z,24.82
2023-05-04T11:39:02.801Z,24.81
2023-05-04T11:40:02.778Z,24.80
2023-05-04T11:41:02.819Z,24.78
2023-05-04T11:42:02.809Z,24.78
2023-05-04T11:43:02.848Z,24.76
2023-05-04T11:44:02.889Z,24.75
2023-05-04T11:45:03.207Z,24.75
2023-05-04T11:46:02.965Z,24.75
2023-05-04T11:47:02.962Z,24.72
2023-05-04T11:48:03.020Z,24.71
2023-05-04T11:49:03.165Z,24.72
2023-05-04T11:50:03.100Z,24.72
2023-05-04T11:51:03.134Z,24.70
2023-05-04T11:52:03.114Z,24.70
2023-05-04T11:53:03.165Z,24.70
2023-05-04T11:54:03.196Z,24.70
2023-05-04T11:55:03.280Z,24.69
2023-05-04T11:56:03.250Z,24.68
2023-05-04T11:57:03.289Z,24.68
2023-05-04T11:58:03.350Z,24.68
2023-05-04T11:59:03.352Z,24.68
2023-05-04T12:00:03.380Z,24.66
2023-05-04T12:01:03.526Z,24.67
2023-05-04T12:02:03.492Z,24.65
2023-05-04T12:03:03.566Z,24.64
2023-05-04T12:04:03.697Z,24.64
2023-05-04T12:05:03.644Z,24.64
2023-05-04T12:06:03.779Z,24.63
2023-05-04T12:07:03.634Z,24.62
2023-05-04T12:08:03.675Z,24.62
2023-05-04T12:09:03.765Z,24.62
2023-05-04T12:10:03.743Z,24.60
2023-05-04T12:11:03.799Z,24.60
2023-05-04T12:12:03.814Z,24.60
2023-05-04T12:13:03.892Z,24.59
2023-05-04T12:14:04.304Z,24.59
2023-05-04T12:15:04.094Z,24.58
2023-05-04T12:16:04.054Z,24.58
2023-05-04T12:17:04.105Z,24.58
2023-05-04T12:18:04.190Z,24.58
2023-05-04T12:19:04.114Z,24.57
2023-05-04T12:20:04.135Z,24.56
2023-05-04T12:21:05.175Z,24.56
2023-05-04T12:22:04.190Z,24.56
2023-05-04T12:23:04.194Z,24.56
2023-05-04T12:24:04.189Z,24.55
2023-05-04T12:25:04.499Z,24.55
2023-05-04T12:26:04.203Z,24.55
2023-05-04T12:27:04.185Z,24.55
2023-05-04T12:28:04.902Z,24.55
2023-05-04T12:29:04.153Z,24.54
2023-05-04T12:30:04.308Z,24.54
2023-05-04T12:31:04.152Z,24.54
2023-05-04T12:32:04.193Z,24.54
2023-05-04T12:33:04.242Z,24.54
2023-05-04T12:34:04.349Z,24.53
2023-05-04T12:35:04.332Z,24.54
2023-05-04T12:36:04.353Z,24.53
2023-05-04T12:37:04.378Z,24.53
2023-05-04T12:38:04.450Z,24.53
2023-05-04T12:39:04.474Z,24.53
2023-05-04T12:40:11.358Z,24.53
2023-05-04T12:41:05.512Z,24.52
2023-05-04T12:42:04.492Z,24.52
2023-05-04T12:43:04.469Z,24.53
2023-05-04T12:44:04.452Z,24.53
2023-05-04T12:45:04.569Z,24.53
2023-05-04T12:46:04.509Z,24.53
2023-05-04T12:47:04.443Z,24.54
2023-05-04T12:48:04.475Z,24.53
2023-05-04T12:49:04.440Z,24.54
2023-05-04T12:50:04.456Z,24.54
2023-05-04T12:51:04.471Z,24.54
2023-05-04T12:52:04.499Z,24.54
2023-05-04T12:53:04.545Z,24.54
2023-05-04T12:54:04.605Z,24.54